Weather at Vuotso Airfield

Public forecast

Using degrees Celsius for public forecast. Weather courtesy of forecast.io.

Closest aviation weather report (METAR) to Vuotso Airfield

Closest report is Ivalo Airport, 31.8 nm (59.0 km) N. Retrieved 2022/07/02 02:20 UTC (5 minutes ago):

EFIV 020220Z AUTO VRB01KT CAVOK 16/15 Q1018

Closest aviation forecast (TAF) to Vuotso Airfield

Forecast is more than 12 hours old.

Closest forecast is Ivalo Airport, 31.8 nm (59.0 km) N. Retrieved 2016/01/04 03:42 UTC (6 years ago):

TAF EFIV 040236Z 0403/0415 16004KT CAVOK PROB40 0403/0409 7000 -SN BKN008